createdAt,value
2023-02-26T00:00:16.221Z,2.84
2023-02-26T00:02:46.142Z,2.77
2023-02-26T00:05:15.697Z,2.81
2023-02-26T00:07:44.537Z,2.81
2023-02-26T00:10:16.171Z,2.76
2023-02-26T00:12:45.690Z,2.73
2023-02-26T00:15:18.674Z,2.71
2023-02-26T00:17:54.285Z,2.62
2023-02-26T00:20:23.990Z,2.61
2023-02-26T00:22:52.910Z,2.52
2023-02-26T00:25:21.606Z,2.52
2023-02-26T00:27:50.598Z,2.54
2023-02-26T00:30:21.926Z,2.57
2023-02-26T00:32:50.995Z,2.56
2023-02-26T00:35:20.069Z,2.51
2023-02-26T00:38:09.537Z,2.51
2023-02-26T00:40:44.482Z,2.56
2023-02-26T00:43:18.403Z,2.56
2023-02-26T00:45:56.631Z,2.48
2023-02-26T00:48:42.323Z,2.44
2023-02-26T00:51:20.419Z,2.41
2023-02-26T00:53:56.840Z,2.43
2023-02-26T00:56:25.770Z,2.44
2023-02-26T00:58:54.525Z,2.43
2023-02-26T01:01:24.816Z,2.38
2023-02-26T01:03:54.195Z,2.37
2023-02-26T01:06:27.146Z,2.38
2023-02-26T01:09:04.838Z,2.43
2023-02-26T01:11:35.997Z,2.36
2023-02-26T01:14:05.255Z,2.29
2023-02-26T01:16:43.680Z,2.26
2023-02-26T01:19:22.132Z,2.28
2023-02-26T01:21:58.223Z,2.32
2023-02-26T01:24:31.164Z,2.35
2023-02-26T01:27:00.214Z,2.39
2023-02-26T01:29:29.251Z,2.42
2023-02-26T01:32:08.622Z,2.45
2023-02-26T01:34:44.003Z,2.42
2023-02-26T01:37:27.174Z,2.50
2023-02-26T01:40:18.667Z,2.52
2023-02-26T01:42:53.808Z,2.52
2023-02-26T01:45:32.520Z,2.46
2023-02-26T01:48:08.617Z,2.37
2023-02-26T01:50:40.341Z,2.42
2023-02-26T01:53:21.918Z,2.40
2023-02-26T01:55:57.302Z,2.33
2023-02-26T01:58:29.878Z,2.31
2023-02-26T02:00:58.745Z,2.26
2023-02-26T02:03:32.108Z,2.25
2023-02-26T02:06:07.786Z,2.19
2023-02-26T02:08:37.175Z,2.12
2023-02-26T02:11:10.421Z,2.19
2023-02-26T02:13:53.955Z,2.17
2023-02-26T02:16:30.780Z,2.15
2023-02-26T02:19:10.166Z,2.26
2023-02-26T02:22:02.948Z,2.36
2023-02-26T02:24:46.173Z,2.44
2023-02-26T02:27:25.304Z,2.50
2023-02-26T02:30:32.060Z,2.56
2023-02-26T02:33:07.232Z,2.62
2023-02-26T02:35:42.873Z,2.64
2023-02-26T02:38:17.481Z,2.69
2023-02-26T02:40:50.422Z,2.64
2023-02-26T02:43:23.931Z,2.65
2023-02-26T02:45:58.474Z,2.69
2023-02-26T02:48:34.284Z,2.72
2023-02-26T02:51:09.774Z,2.68
2023-02-26T02:53:44.594Z,2.67
2023-02-26T02:56:25.699Z,2.59
2023-02-26T02:59:05.105Z,2.60
2023-02-26T03:01:36.915Z,2.62
2023-02-26T03:04:11.518Z,2.62
2023-02-26T03:06:40.745Z,2.62
2023-02-26T03:09:11.963Z,2.66
2023-02-26T03:11:43.643Z,2.73
2023-02-26T03:14:14.555Z,2.70
2023-02-26T03:17:02.501Z,2.68
2023-02-26T03:19:42.460Z,2.72
2023-02-26T03:22:16.608Z,2.73
2023-02-26T03:24:59.780Z,2.74
2023-02-26T03:27:34.445Z,2.71
2023-02-26T03:30:07.507Z,2.74
2023-02-26T03:32:48.417Z,2.73
2023-02-26T03:35:23.734Z,2.66
2023-02-26T03:37:58.621Z,2.65
2023-02-26T03:40:32.930Z,2.65
2023-02-26T03:43:09.100Z,2.67
2023-02-26T03:45:41.190Z,2.65
2023-02-26T03:48:14.885Z,2.70
2023-02-26T03:50:49.751Z,2.72
2023-02-26T03:53:35.441Z,2.72
2023-02-26T03:56:18.192Z,2.75
2023-02-26T03:59:07.548Z,2.76
2023-02-26T04:01:46.560Z,2.76
2023-02-26T04:04:21.037Z,2.76
2023-02-26T04:06:53.743Z,2.76
2023-02-26T04:09:23.371Z,2.72
2023-02-26T04:11:55.218Z,2.69
2023-02-26T04:14:24.291Z,2.71
2023-02-26T04:16:55.992Z,2.75
2023-02-26T04:19:24.900Z,2.67
2023-02-26T04:21:56.346Z,2.65
2023-02-26T04:24:25.413Z,2.66
2023-02-26T04:26:54.181Z,2.65
2023-02-26T04:29:24.576Z,2.62
2023-02-26T04:31:54.311Z,2.61
2023-02-26T04:34:23.179Z,2.61
2023-02-26T04:36:52.448Z,2.63
2023-02-26T04:39:23.556Z,2.62
2023-02-26T04:41:52.805Z,2.63
2023-02-26T04:44:21.756Z,2.63
2023-02-26T04:46:50.555Z,2.61
2023-02-26T04:49:19.367Z,2.61
2023-02-26T04:51:50.154Z,2.60
2023-02-26T04:54:19.257Z,2.59
2023-02-26T04:56:49.497Z,2.59
2023-02-26T04:59:18.286Z,2.62
2023-02-26T05:01:47.793Z,2.61
2023-02-26T05:04:17.364Z,2.57
2023-02-26T05:06:50.607Z,2.52
2023-02-26T05:09:19.366Z,2.52
2023-02-26T05:11:49.818Z,2.54
2023-02-26T05:14:18.903Z,2.54
2023-02-26T05:16:50.770Z,2.51
2023-02-26T05:19:19.781Z,2.47
2023-02-26T05:21:51.418Z,2.41
2023-02-26T05:24:20.318Z,2.43
2023-02-26T05:26:50.478Z,2.42
2023-02-26T05:29:19.701Z,2.37
2023-02-26T05:31:48.541Z,2.34
2023-02-26T05:34:18.714Z,2.32
2023-02-26T05:36:48.051Z,2.36
2023-02-26T05:39:16.784Z,2.39
2023-02-26T05:41:46.866Z,2.35
2023-02-26T05:44:17.129Z,2.37
2023-02-26T05:46:45.935Z,2.39
2023-02-26T05:49:14.758Z,2.33
2023-02-26T05:51:44.729Z,2.34
2023-02-26T05:54:13.648Z,2.31
2023-02-26T05:56:42.377Z,2.28
2023-02-26T05:59:11.268Z,2.25
2023-02-26T06:01:42.973Z,2.25
2023-02-26T06:04:11.856Z,2.27
2023-02-26T06:06:40.871Z,2.33
2023-02-26T06:09:09.742Z,2.36
2023-02-26T06:11:39.973Z,2.37
2023-02-26T06:14:09.105Z,2.39
2023-02-26T06:16:37.904Z,2.44
2023-02-26T06:19:08.243Z,2.47
2023-02-26T06:21:36.947Z,2.49
2023-02-26T06:24:06.067Z,2.57
2023-02-26T06:26:34.820Z,2.66
2023-02-26T06:29:03.771Z,2.71
2023-02-26T06:31:32.544Z,2.76
2023-02-26T06:34:01.313Z,2.79
2023-02-26T06:36:31.460Z,2.79
2023-02-26T06:39:00.249Z,2.87
2023-02-26T06:41:29.439Z,2.88
2023-02-26T06:43:58.280Z,2.93
2023-02-26T06:46:27.370Z,2.96
2023-02-26T06:48:57.105Z,3.01
2023-02-26T06:51:25.811Z,3.03
2023-02-26T06:53:56.041Z,3.08
2023-02-26T06:56:25.886Z,3.07
2023-02-26T06:58:55.104Z,3.09
2023-02-26T07:01:24.399Z,3.11
2023-02-26T07:03:53.276Z,3.11
2023-02-26T07:06:38.087Z,3.18
2023-02-26T07:09:08.705Z,3.21
2023-02-26T07:11:37.515Z,3.16
2023-02-26T07:14:06.203Z,3.15
2023-02-26T07:16:35.221Z,3.15
2023-02-26T07:19:03.888Z,3.17
2023-02-26T07:21:32.641Z,3.16
2023-02-26T07:24:01.781Z,3.16
2023-02-26T07:26:33.492Z,3.13
2023-02-26T07:29:02.381Z,3.15
2023-02-26T07:31:31.230Z,3.15
2023-02-26T07:33:59.994Z,3.11
2023-02-26T07:36:29.204Z,3.11
2023-02-26T07:38:57.923Z,3.07
2023-02-26T07:41:26.567Z,3.08
2023-02-26T07:43:56.860Z,3.16
2023-02-26T07:46:25.890Z,3.23
2023-02-26T07:48:54.908Z,3.26
2023-02-26T07:51:23.740Z,3.44
2023-02-26T07:53:52.578Z,3.63
2023-02-26T07:56:21.306Z,3.77
2023-02-26T07:58:50.277Z,3.83
2023-02-26T08:01:20.484Z,4.05
2023-02-26T08:03:49.699Z,4.30
2023-02-26T08:06:18.548Z,4.33
2023-02-26T08:08:47.646Z,4.35
2023-02-26T08:11:16.344Z,4.52
2023-02-26T08:13:45.100Z,4.55
2023-02-26T08:16:14.094Z,4.63
2023-02-26T08:18:44.739Z,4.69
2023-02-26T08:21:13.627Z,4.75
2023-02-26T08:23:42.357Z,4.73
2023-02-26T08:26:14.308Z,4.64
2023-02-26T08:28:43.069Z,4.64
2023-02-26T08:31:13.686Z,4.56
2023-02-26T08:33:45.272Z,4.63
2023-02-26T08:36:14.884Z,4.73
2023-02-26T08:38:43.628Z,4.90
2023-02-26T08:41:12.395Z,5.01
2023-02-26T08:43:41.208Z,5.21
2023-02-26T08:46:10.071Z,5.38
2023-02-26T08:48:38.720Z,5.49
2023-02-26T08:51:08.928Z,5.69
2023-02-26T08:53:37.527Z,5.57
2023-02-26T08:56:06.997Z,5.54
2023-02-26T08:58:35.766Z,5.63
2023-02-26T09:01:05.409Z,5.76
2023-02-26T09:03:34.150Z,5.71
2023-02-26T09:06:03.680Z,5.70
2023-02-26T09:08:35.270Z,5.48
2023-02-26T09:11:04.672Z,5.29
2023-02-26T09:13:33.351Z,5.34
2023-02-26T09:16:02.146Z,5.46
2023-02-26T09:18:30.909Z,5.55
2023-02-26T09:20:59.748Z,5.83
2023-02-26T09:23:28.716Z,5.86
2023-02-26T09:25:59.587Z,5.66
2023-02-26T09:28:28.506Z,5.64
2023-02-26T09:30:57.596Z,5.62
2023-02-26T09:33:26.309Z,5.81
2023-02-26T09:35:55.279Z,5.90
2023-02-26T09:38:24.118Z,5.92
2023-02-26T09:40:56.193Z,5.90
2023-02-26T09:43:48.944Z,5.78
2023-02-26T09:46:30.866Z,5.85
2023-02-26T09:49:08.850Z,6.05
2023-02-26T09:51:38.519Z,6.12
2023-02-26T09:54:12.159Z,6.30
2023-02-26T09:56:41.434Z,6.77
2023-02-26T09:59:12.776Z,6.79
2023-02-26T10:01:50.073Z,6.93
2023-02-26T10:04:27.405Z,7.08
2023-02-26T10:07:16.847Z,6.93
2023-02-26T10:09:58.492Z,6.67
2023-02-26T10:12:29.834Z,6.44
2023-02-26T10:15:04.548Z,6.10
2023-02-26T10:17:41.109Z,5.96
2023-02-26T10:20:19.324Z,6.02
2023-02-26T10:22:57.586Z,5.97
2023-02-26T10:25:31.278Z,6.21
2023-02-26T10:28:07.794Z,6.42
2023-02-26T10:30:42.961Z,6.56
2023-02-26T10:33:21.384Z,6.72
2023-02-26T10:35:55.235Z,6.38
2023-02-26T10:38:26.973Z,6.28
2023-02-26T10:41:02.350Z,6.47
2023-02-26T10:43:38.107Z,6.67
2023-02-26T10:46:20.627Z,6.58
2023-02-26T10:49:03.482Z,6.77
2023-02-26T10:51:37.008Z,6.86
2023-02-26T10:54:14.677Z,6.90
2023-02-26T10:56:43.487Z,7.08
2023-02-26T10:59:12.399Z,7.30
2023-02-26T11:01:43.996Z,7.30
2023-02-26T11:04:15.452Z,7.21
2023-02-26T11:06:48.537Z,7.39
2023-02-26T11:09:23.714Z,7.21
2023-02-26T11:11:54.802Z,7.22
2023-02-26T11:14:27.143Z,7.18
2023-02-26T11:17:02.780Z,6.74
2023-02-26T11:19:37.623Z,6.90
2023-02-26T11:22:10.009Z,7.03
2023-02-26T11:24:41.772Z,6.98
2023-02-26T11:27:16.580Z,6.81
2023-02-26T11:29:50.534Z,6.78
2023-02-26T11:32:25.750Z,6.66
2023-02-26T11:34:56.736Z,6.45
2023-02-26T11:37:30.998Z,6.55
2023-02-26T11:40:01.927Z,6.54
2023-02-26T11:42:30.631Z,6.55
2023-02-26T11:44:59.939Z,6.79
2023-02-26T11:47:32.607Z,6.90
2023-02-26T11:50:05.784Z,6.90
2023-02-26T11:52:37.100Z,6.75
2023-02-26T11:55:19.449Z,6.73
2023-02-26T11:57:55.378Z,6.63
2023-02-26T12:00:30.912Z,6.46
2023-02-26T12:03:05.285Z,6.70
2023-02-26T12:05:34.392Z,6.96
2023-02-26T12:08:07.300Z,7.13
2023-02-26T12:10:42.260Z,7.02
2023-02-26T12:13:19.147Z,7.22
2023-02-26T12:15:57.625Z,7.32
2023-02-26T12:19:01.291Z,6.97
2023-02-26T12:22:04.653Z,6.72
2023-02-26T12:25:00.507Z,6.68
2023-02-26T12:27:40.514Z,6.58
2023-02-26T12:30:25.276Z,6.46
2023-02-26T12:33:13.043Z,6.29
2023-02-26T12:35:52.775Z,6.62
2023-02-26T12:38:22.938Z,6.85
2023-02-26T12:41:09.470Z,6.72
2023-02-26T12:43:48.540Z,6.49
2023-02-26T12:46:32.270Z,6.41
2023-02-26T12:49:23.193Z,6.46
2023-02-26T12:52:12.646Z,6.50
2023-02-26T12:54:55.469Z,6.38
2023-02-26T12:57:51.432Z,6.46
2023-02-26T13:00:41.852Z,6.59
2023-02-26T13:03:37.273Z,6.71
2023-02-26T13:06:32.119Z,6.63
2023-02-26T13:09:11.542Z,6.81
2023-02-26T13:11:53.312Z,6.78
2023-02-26T13:14:37.125Z,6.84
2023-02-26T13:17:12.906Z,6.91
2023-02-26T13:19:48.649Z,6.64
2023-02-26T13:22:22.985Z,6.45
2023-02-26T13:24:59.015Z,6.31
2023-02-26T13:27:33.067Z,5.96
2023-02-26T13:30:16.463Z,5.81
2023-02-26T13:32:47.716Z,5.71
2023-02-26T13:35:23.584Z,5.68
2023-02-26T13:37:54.790Z,5.69
2023-02-26T13:40:55.221Z,5.58
2023-02-26T13:43:39.352Z,5.69
2023-02-26T13:46:25.011Z,5.75
2023-02-26T13:49:03.023Z,5.88
2023-02-26T13:51:37.048Z,6.04
2023-02-26T13:54:12.040Z,6.01
2023-02-26T13:56:53.820Z,5.89
2023-02-26T13:59:39.218Z,5.71
2023-02-26T14:02:34.010Z,5.51
2023-02-26T14:05:03.025Z,5.40
2023-02-26T14:07:49.745Z,5.39
2023-02-26T14:10:26.464Z,5.25
2023-02-26T14:13:13.689Z,5.11
2023-02-26T14:15:50.426Z,5.20
2023-02-26T14:18:31.547Z,5.20
2023-02-26T14:21:22.160Z,5.14
2023-02-26T14:23:51.267Z,4.95
2023-02-26T14:26:21.189Z,4.90
2023-02-26T14:29:00.282Z,4.85
2023-02-26T14:31:55.627Z,4.88
2023-02-26T14:34:27.047Z,4.82
2023-02-26T14:36:59.464Z,4.72
2023-02-26T14:39:31.874Z,4.69
2023-02-26T14:42:06.972Z,4.70
2023-02-26T14:44:42.730Z,4.64
2023-02-26T14:47:13.861Z,4.67
2023-02-26T14:49:47.216Z,4.62
2023-02-26T14:52:33.501Z,4.61
2023-02-26T14:55:17.635Z,4.64
2023-02-26T14:57:53.315Z,4.70
2023-02-26T15:00:36.738Z,4.67
2023-02-26T15:03:36.907Z,4.63
2023-02-26T15:06:23.497Z,4.54
2023-02-26T15:09:08.159Z,4.51
2023-02-26T15:12:04.527Z,4.49
2023-02-26T15:14:56.781Z,4.56
2023-02-26T15:17:50.855Z,4.49
2023-02-26T15:20:29.000Z,4.37
2023-02-26T15:23:13.324Z,4.42
2023-02-26T15:25:46.083Z,4.43
2023-02-26T15:28:23.829Z,4.31
2023-02-26T15:30:53.780Z,4.36
2023-02-26T15:33:25.120Z,4.33
2023-02-26T15:35:56.803Z,4.26
2023-02-26T15:38:26.371Z,4.15
2023-02-26T15:40:59.471Z,4.17
2023-02-26T15:43:30.467Z,4.15
2023-02-26T15:46:03.088Z,4.16
2023-02-26T15:48:38.687Z,4.12
2023-02-26T15:51:11.022Z,4.06
2023-02-26T15:53:43.539Z,4.01
2023-02-26T15:56:15.109Z,3.92
2023-02-26T15:58:47.581Z,3.94
2023-02-26T16:01:18.663Z,3.90
2023-02-26T16:03:52.419Z,3.82
2023-02-26T16:06:26.510Z,3.74
2023-02-26T16:08:55.756Z,3.74
2023-02-26T16:11:26.764Z,3.69
2023-02-26T16:13:56.238Z,3.65
2023-02-26T16:16:30.623Z,3.61
2023-02-26T16:19:01.760Z,3.59
2023-02-26T16:21:35.840Z,3.63
2023-02-26T16:24:07.970Z,3.63
2023-02-26T16:26:40.849Z,3.61
2023-02-26T16:29:22.583Z,3.60
2023-02-26T16:31:55.347Z,3.58
2023-02-26T16:34:36.202Z,3.49
2023-02-26T16:37:21.944Z,3.52
2023-02-26T16:39:56.566Z,3.53
2023-02-26T16:42:38.177Z,3.45
2023-02-26T16:45:20.279Z,3.41
2023-02-26T16:47:53.147Z,3.38
2023-02-26T16:50:27.080Z,3.34
2023-02-26T16:53:03.161Z,3.34
2023-02-26T16:55:34.649Z,3.35
2023-02-26T16:58:07.473Z,3.38
2023-02-26T17:00:39.711Z,3.38
2023-02-26T17:03:14.094Z,3.36
2023-02-26T17:05:50.679Z,3.31
2023-02-26T17:08:21.716Z,3.32
2023-02-26T17:10:55.511Z,3.26
2023-02-26T17:13:27.837Z,3.13
2023-02-26T17:16:01.464Z,3.09
2023-02-26T17:18:30.887Z,3.07
2023-02-26T17:21:04.470Z,3.04
2023-02-26T17:23:38.180Z,3.01
2023-02-26T17:26:07.510Z,3.01
2023-02-26T17:28:41.555Z,2.97
2023-02-26T17:31:11.897Z,2.92
2023-02-26T17:33:43.683Z,2.89
2023-02-26T17:36:16.612Z,2.86
2023-02-26T17:38:47.578Z,2.84
2023-02-26T17:41:19.274Z,2.79
2023-02-26T17:43:48.042Z,2.83
2023-02-26T17:46:16.749Z,2.75
2023-02-26T17:48:45.657Z,2.70
2023-02-26T17:51:16.812Z,2.70
2023-02-26T17:53:47.188Z,2.66
2023-02-26T17:56:25.812Z,2.61
2023-02-26T17:58:55.611Z,2.68
2023-02-26T18:01:26.890Z,2.60
2023-02-26T18:03:56.645Z,2.61
2023-02-26T18:06:27.107Z,2.57
2023-02-26T18:08:55.870Z,2.52
2023-02-26T18:11:26.351Z,2.49
2023-02-26T18:13:55.752Z,2.52
2023-02-26T18:16:29.805Z,2.47
2023-02-26T18:18:58.701Z,2.46
2023-02-26T18:21:29.762Z,2.42
2023-02-26T18:24:01.176Z,2.39
2023-02-26T18:26:33.322Z,2.41
2023-02-26T18:29:02.140Z,2.40
2023-02-26T18:31:35.097Z,2.34
2023-02-26T18:34:04.611Z,2.31
2023-02-26T18:36:38.209Z,2.34
2023-02-26T18:39:12.620Z,2.38
2023-02-26T18:41:41.468Z,2.36
2023-02-26T18:44:10.139Z,2.34
2023-02-26T18:46:40.531Z,2.28
2023-02-26T18:49:18.663Z,2.28
2023-02-26T18:51:48.881Z,2.29
2023-02-26T18:54:17.978Z,2.24
2023-02-26T18:56:47.320Z,2.23
2023-02-26T18:59:16.075Z,2.19
2023-02-26T19:01:45.203Z,2.23
2023-02-26T19:04:13.977Z,2.17
2023-02-26T19:06:42.587Z,2.15
2023-02-26T19:09:12.818Z,2.13
2023-02-26T19:11:42.823Z,2.14
2023-02-26T19:14:11.231Z,2.13
2023-02-26T19:16:42.848Z,2.09
2023-02-26T19:19:12.936Z,2.07
2023-02-26T19:21:42.273Z,2.10
2023-02-26T19:24:14.278Z,2.14
2023-02-26T19:26:44.440Z,2.12
2023-02-26T19:29:17.117Z,2.06
2023-02-26T19:31:46.797Z,2.08
2023-02-26T19:34:16.007Z,2.03
2023-02-26T19:36:49.445Z,2.05
2023-02-26T19:39:20.168Z,2.04
2023-02-26T19:41:50.628Z,2.04
2023-02-26T19:44:20.575Z,2.05
2023-02-26T19:46:49.385Z,2.04
2023-02-26T19:49:18.722Z,2.03
2023-02-26T19:51:47.589Z,2.06
2023-02-26T19:54:17.198Z,2.05
2023-02-26T19:56:47.467Z,2.05
2023-02-26T19:59:16.358Z,2.02
2023-02-26T20:01:46.677Z,2.02
2023-02-26T20:04:15.415Z,2.03
2023-02-26T20:06:44.235Z,2.04
2023-02-26T20:09:14.890Z,2.05
2023-02-26T20:11:43.782Z,2.03
2023-02-26T20:14:13.980Z,2.00
2023-02-26T20:16:42.881Z,2.02
2023-02-26T20:19:11.614Z,2.02
2023-02-26T20:21:40.406Z,2.04
2023-02-26T20:24:09.502Z,2.03
2023-02-26T20:26:38.706Z,2.00
2023-02-26T20:29:07.423Z,2.00
2023-02-26T20:31:37.918Z,1.92
2023-02-26T20:34:06.875Z,1.91
2023-02-26T20:36:35.554Z,1.93
2023-02-26T20:39:04.431Z,1.91
2023-02-26T20:41:33.160Z,1.86
2023-02-26T20:44:02.152Z,1.85
2023-02-26T20:46:33.281Z,1.88
2023-02-26T20:49:03.716Z,1.78
2023-02-26T20:51:32.751Z,1.79
2023-02-26T20:54:01.452Z,1.82
2023-02-26T20:56:30.197Z,1.79
2023-02-26T20:58:58.939Z,1.75
2023-02-26T21:01:35.809Z,1.77
2023-02-26T21:04:08.053Z,1.76
2023-02-26T21:06:37.283Z,1.77
2023-02-26T21:09:09.041Z,1.71
2023-02-26T21:11:38.888Z,1.68
2023-02-26T21:14:09.632Z,1.60
2023-02-26T21:16:40.858Z,1.62
2023-02-26T21:19:11.580Z,1.61
2023-02-26T21:21:40.663Z,1.62
2023-02-26T21:24:09.870Z,1.62
2023-02-26T21:26:40.362Z,1.64
2023-02-26T21:29:09.193Z,1.64
2023-02-26T21:31:38.182Z,1.63
2023-02-26T21:34:30.251Z,1.60
2023-02-26T21:36:57.383Z,1.60
2023-02-26T21:39:26.423Z,1.65
2023-02-26T21:41:55.104Z,1.69
2023-02-26T21:44:24.093Z,1.70
2023-02-26T21:46:52.696Z,1.68
2023-02-26T21:49:21.447Z,1.68
2023-02-26T21:51:50.053Z,1.68
2023-02-26T21:54:20.271Z,1.64
2023-02-26T21:56:48.929Z,1.60
2023-02-26T21:59:17.665Z,1.58
2023-02-26T22:01:46.507Z,1.59
2023-02-26T22:04:15.260Z,1.59
2023-02-26T22:06:44.151Z,1.62
2023-02-26T22:09:13.083Z,1.58
2023-02-26T22:11:43.651Z,1.62
2023-02-26T22:14:12.648Z,1.65
2023-02-26T22:16:41.532Z,1.63
2023-02-26T22:19:10.380Z,1.52
2023-02-26T22:21:39.133Z,1.62
2023-02-26T22:24:08.768Z,1.63
2023-02-26T22:26:37.224Z,1.63
2023-02-26T22:29:07.365Z,1.62
2023-02-26T22:31:36.239Z,1.62
2023-02-26T22:34:04.997Z,1.59
2023-02-26T22:36:36.484Z,1.54
2023-02-26T22:39:06.604Z,1.54
2023-02-26T22:41:36.293Z,1.56
2023-02-26T22:44:07.334Z,1.52
2023-02-26T22:46:36.292Z,1.56
2023-02-26T22:49:05.039Z,1.50
2023-02-26T22:51:34.378Z,1.51
2023-02-26T22:54:03.464Z,1.51
2023-02-26T22:56:32.357Z,1.51
2023-02-26T22:59:01.156Z,1.49
2023-02-26T23:01:31.366Z,1.52
2023-02-26T23:04:00.422Z,1.51
2023-02-26T23:06:29.259Z,1.51
2023-02-26T23:08:57.886Z,1.50
2023-02-26T23:11:26.863Z,1.43
2023-02-26T23:13:55.729Z,1.44
2023-02-26T23:16:24.869Z,1.43
2023-02-26T23:18:55.063Z,1.44
2023-02-26T23:21:24.204Z,1.41
2023-02-26T23:23:53.201Z,1.41
2023-02-26T23:26:21.877Z,1.39
2023-02-26T23:28:50.955Z,1.38
2023-02-26T23:31:19.753Z,1.38
2023-02-26T23:33:48.541Z,1.39
2023-02-26T23:36:18.671Z,1.42
2023-02-26T23:38:47.467Z,1.40
2023-02-26T23:41:16.208Z,1.34
2023-02-26T23:43:45.045Z,1.29
2023-02-26T23:46:13.754Z,1.24
2023-02-26T23:48:42.592Z,1.26
2023-02-26T23:51:11.333Z,1.24
2023-02-26T23:53:41.542Z,1.22
2023-02-26T23:56:10.220Z,1.20
2023-02-26T23:58:39.041Z,1.17
